sensor_id;sensor_type;location;lat;lon;timestamp;P1;durP1;ratioP1;P2;durP2;ratioP2
60257;SDS011;46115;44.484;11.314;2022-08-03T00:03:54;3.67;;;2.28;;
60257;SDS011;46115;44.484;11.314;2022-08-03T00:07:56;6.43;;;2.42;;
60257;SDS011;46115;44.484;11.314;2022-08-03T00:11:59;4.95;;;2.60;;
60257;SDS011;46115;44.484;11.314;2022-08-03T00:16:03;6.40;;;2.47;;
60257;SDS011;46115;44.484;11.314;2022-08-03T00:20:06;4.28;;;2.25;;
60257;SDS011;46115;44.484;11.314;2022-08-03T00:24:09;5.00;;;2.30;;
60257;SDS011;46115;44.484;11.314;2022-08-03T00:28:12;4.97;;;2.67;;
60257;SDS011;46115;44.484;11.314;2022-08-03T00:32:16;4.32;;;2.60;;
60257;SDS011;46115;44.484;11.314;2022-08-03T00:36:18;4.60;;;2.35;;
60257;SDS011;46115;44.484;11.314;2022-08-03T00:40:21;5.25;;;2.70;;
60257;SDS011;46115;44.484;11.314;2022-08-03T00:44:23;6.93;;;2.28;;
60257;SDS011;46115;44.484;11.314;2022-08-03T00:48:27;4.05;;;2.42;;
60257;SDS011;46115;44.484;11.314;2022-08-03T00:52:29;5.38;;;2.80;;
60257;SDS011;46115;44.484;11.314;2022-08-03T00:56:32;5.63;;;2.55;;
60257;SDS011;46115;44.484;11.314;2022-08-03T01:00:35;7.93;;;2.58;;
60257;SDS011;46115;44.484;11.314;2022-08-03T01:04:40;6.63;;;2.85;;
60257;SDS011;46115;44.484;11.314;2022-08-03T01:08:45;4.80;;;2.60;;
60257;SDS011;46115;44.484;11.314;2022-08-03T01:12:51;5.57;;;2.42;;
60257;SDS011;46115;44.484;11.314;2022-08-03T01:17:00;2.95;;;2.35;;
60257;SDS011;46115;44.484;11.314;2022-08-03T01:21:13;4.97;;;2.83;;
60257;SDS011;46115;44.484;11.314;2022-08-03T01:25:24;3.60;;;2.67;;
60257;SDS011;46115;44.484;11.314;2022-08-03T01:29:51;3.08;;;2.47;;
60257;SDS011;46115;44.484;11.314;2022-08-03T01:34:02;4.03;;;2.50;;
60257;SDS011;46115;44.484;11.314;2022-08-03T01:38:08;3.63;;;2.65;;
60257;SDS011;46115;44.484;11.314;2022-08-03T01:42:14;5.85;;;2.70;;
60257;SDS011;46115;44.484;11.314;2022-08-03T01:46:20;6.68;;;2.70;;
60257;SDS011;46115;44.484;11.314;2022-08-03T01:50:26;3.70;;;2.60;;
60257;SDS011;46115;44.484;11.314;2022-08-03T01:54:31;6.35;;;2.70;;
60257;SDS011;46115;44.484;11.314;2022-08-03T01:58:36;4.80;;;2.85;;
60257;SDS011;46115;44.484;11.314;2022-08-03T02:02:42;5.43;;;2.70;;
60257;SDS011;46115;44.484;11.314;2022-08-03T02:06:45;4.40;;;2.75;;
60257;SDS011;46115;44.484;11.314;2022-08-03T02:10:49;5.65;;;2.70;;
60257;SDS011;46115;44.484;11.314;2022-08-03T02:14:53;3.17;;;2.58;;
60257;SDS011;46115;44.484;11.314;2022-08-03T02:18:59;4.15;;;2.80;;
60257;SDS011;46115;44.484;11.314;2022-08-03T02:23:04;5.47;;;2.83;;
60257;SDS011;46115;44.484;11.314;2022-08-03T02:27:09;4.90;;;2.75;;
60257;SDS011;46115;44.484;11.314;2022-08-03T02:31:21;5.43;;;2.80;;
60257;SDS011;46115;44.484;11.314;2022-08-03T02:35:27;4.35;;;2.95;;
60257;SDS011;46115;44.484;11.314;2022-08-03T02:39:32;3.92;;;2.92;;
60257;SDS011;46115;44.484;11.314;2022-08-03T02:43:37;4.72;;;2.80;;
60257;SDS011;46115;44.484;11.314;2022-08-03T02:47:41;7.10;;;3.10;;
60257;SDS011;46115;44.484;11.314;2022-08-03T02:51:47;5.90;;;2.90;;
60257;SDS011;46115;44.484;11.314;2022-08-03T02:55:52;4.18;;;2.70;;
60257;SDS011;46115;44.484;11.314;2022-08-03T02:59:56;3.50;;;2.63;;
60257;SDS011;46115;44.484;11.314;2022-08-03T03:04:00;3.97;;;2.88;;
60257;SDS011;46115;44.484;11.314;2022-08-03T03:08:05;4.03;;;2.80;;
60257;SDS011;46115;44.484;11.314;2022-08-03T03:12:08;3.40;;;2.85;;
60257;SDS011;46115;44.484;11.314;2022-08-03T03:16:13;3.50;;;2.65;;
60257;SDS011;46115;44.484;11.314;2022-08-03T03:20:17;6.65;;;2.90;;
60257;SDS011;46115;44.484;11.314;2022-08-03T03:24:21;3.88;;;2.80;;
60257;SDS011;46115;44.484;11.314;2022-08-03T03:28:24;3.05;;;2.60;;
60257;SDS011;46115;44.484;11.314;2022-08-03T03:32:27;3.53;;;2.72;;
60257;SDS011;46115;44.484;11.314;2022-08-03T03:36:30;5.00;;;2.75;;
60257;SDS011;46115;44.484;11.314;2022-08-03T03:40:35;5.88;;;3.00;;
60257;SDS011;46115;44.484;11.314;2022-08-03T03:44:38;4.43;;;2.90;;
60257;SDS011;46115;44.484;11.314;2022-08-03T03:48:40;5.32;;;2.63;;
60257;SDS011;46115;44.484;11.314;2022-08-03T03:52:43;6.18;;;2.95;;
60257;SDS011;46115;44.484;11.314;2022-08-03T03:56:47;6.93;;;3.40;;
60257;SDS011;46115;44.484;11.314;2022-08-03T04:00:50;4.32;;;2.88;;
60257;SDS011;46115;44.484;11.314;2022-08-03T04:04:53;3.95;;;2.70;;
60257;SDS011;46115;44.484;11.314;2022-08-03T04:09:13;3.22;;;2.85;;
60257;SDS011;46115;44.484;11.314;2022-08-03T04:13:35;5.55;;;3.00;;
60257;SDS011;46115;44.484;11.314;2022-08-03T04:17:41;3.80;;;2.83;;
60257;SDS011;46115;44.484;11.314;2022-08-03T04:21:47;3.53;;;2.80;;
60257;SDS011;46115;44.484;11.314;2022-08-03T04:25:53;3.67;;;2.80;;
60257;SDS011;46115;44.484;11.314;2022-08-03T04:29:59;3.10;;;2.80;;
60257;SDS011;46115;44.484;11.314;2022-08-03T04:34:05;5.07;;;2.85;;
60257;SDS011;46115;44.484;11.314;2022-08-03T04:38:08;3.85;;;2.67;;
60257;SDS011;46115;44.484;11.314;2022-08-03T04:42:15;3.33;;;2.85;;
60257;SDS011;46115;44.484;11.314;2022-08-03T04:46:22;3.92;;;2.90;;
60257;SDS011;46115;44.484;11.314;2022-08-03T04:50:26;3.47;;;3.00;;
60257;SDS011;46115;44.484;11.314;2022-08-03T04:54:39;3.67;;;2.80;;
60257;SDS011;46115;44.484;11.314;2022-08-03T04:58:42;5.28;;;2.97;;
60257;SDS011;46115;44.484;11.314;2022-08-03T05:02:46;4.80;;;2.50;;
60257;SDS011;46115;44.484;11.314;2022-08-03T05:06:49;4.28;;;2.60;;
60257;SDS011;46115;44.484;11.314;2022-08-03T05:10:52;4.88;;;2.40;;
60257;SDS011;46115;44.484;11.314;2022-08-03T05:14:54;4.13;;;2.33;;
60257;SDS011;46115;44.484;11.314;2022-08-03T05:18:58;4.38;;;2.33;;
60257;SDS011;46115;44.484;11.314;2022-08-03T05:23:00;5.38;;;2.40;;
60257;SDS011;46115;44.484;11.314;2022-08-03T05:27:03;4.88;;;2.30;;
60257;SDS011;46115;44.484;11.314;2022-08-03T05:31:06;4.38;;;2.55;;
60257;SDS011;46115;44.484;11.314;2022-08-03T05:35:10;4.72;;;4.10;;
60257;SDS011;46115;44.484;11.314;2022-08-03T05:39:12;5.47;;;2.90;;
60257;SDS011;46115;44.484;11.314;2022-08-03T05:43:15;2.88;;;2.10;;
60257;SDS011;46115;44.484;11.314;2022-08-03T05:47:17;3.65;;;2.40;;
60257;SDS011;46115;44.484;11.314;2022-08-03T05:51:21;4.88;;;2.13;;
60257;SDS011;46115;44.484;11.314;2022-08-03T05:55:24;4.35;;;2.10;;
60257;SDS011;46115;44.484;11.314;2022-08-03T05:59:26;7.53;;;2.03;;
60257;SDS011;46115;44.484;11.314;2022-08-03T06:03:29;3.45;;;2.10;;
60257;SDS011;46115;44.484;11.314;2022-08-03T06:07:32;4.63;;;2.10;;
60257;SDS011;46115;44.484;11.314;2022-08-03T06:11:35;3.83;;;1.85;;
60257;SDS011;46115;44.484;11.314;2022-08-03T06:15:38;4.75;;;2.08;;
60257;SDS011;46115;44.484;11.314;2022-08-03T06:19:41;4.97;;;2.10;;
60257;SDS011;46115;44.484;11.314;2022-08-03T06:23:45;4.32;;;1.92;;
60257;SDS011;46115;44.484;11.314;2022-08-03T06:27:48;6.43;;;2.05;;
60257;SDS011;46115;44.484;11.314;2022-08-03T06:31:51;3.65;;;1.95;;
60257;SDS011;46115;44.484;11.314;2022-08-03T06:35:53;3.22;;;1.83;;
60257;SDS011;46115;44.484;11.314;2022-08-03T06:39:57;7.80;;;1.83;;
60257;SDS011;46115;44.484;11.314;2022-08-03T06:44:00;2.70;;;1.80;;
60257;SDS011;46115;44.484;11.314;2022-08-03T06:48:03;5.20;;;1.80;;
60257;SDS011;46115;44.484;11.314;2022-08-03T06:52:06;3.55;;;1.80;;
60257;SDS011;46115;44.484;11.314;2022-08-03T06:56:10;4.00;;;1.80;;
60257;SDS011;46115;44.484;11.314;2022-08-03T07:00:13;9.40;;;2.00;;
60257;SDS011;46115;44.484;11.314;2022-08-03T07:04:16;4.55;;;1.77;;
60257;SDS011;46115;44.484;11.314;2022-08-03T07:08:18;4.22;;;1.73;;
60257;SDS011;46115;44.484;11.314;2022-08-03T07:12:22;4.70;;;1.60;;
60257;SDS011;46115;44.484;11.314;2022-08-03T07:16:25;5.82;;;2.00;;
60257;SDS011;46115;44.484;11.314;2022-08-03T07:20:28;4.90;;;1.60;;
60257;SDS011;46115;44.484;11.314;2022-08-03T07:24:31;7.30;;;2.03;;
60257;SDS011;46115;44.484;11.314;2022-08-03T07:28:35;7.05;;;1.80;;
60257;SDS011;46115;44.484;11.314;2022-08-03T07:32:37;4.13;;;1.80;;
60257;SDS011;46115;44.484;11.314;2022-08-03T07:36:40;4.78;;;1.63;;
60257;SDS011;46115;44.484;11.314;2022-08-03T07:40:43;4.10;;;1.75;;
60257;SDS011;46115;44.484;11.314;2022-08-03T07:44:47;2.72;;;1.50;;
60257;SDS011;46115;44.484;11.314;2022-08-03T07:48:49;4.63;;;1.70;;
60257;SDS011;46115;44.484;11.314;2022-08-03T07:52:52;2.67;;;1.70;;
60257;SDS011;46115;44.484;11.314;2022-08-03T07:56:55;2.97;;;1.60;;
60257;SDS011;46115;44.484;11.314;2022-08-03T08:00:59;3.78;;;1.50;;
60257;SDS011;46115;44.484;11.314;2022-08-03T08:05:02;3.92;;;1.70;;
60257;SDS011;46115;44.484;11.314;2022-08-03T08:09:05;3.95;;;1.75;;
60257;SDS011;46115;44.484;11.314;2022-08-03T08:13:08;3.20;;;1.80;;
60257;SDS011;46115;44.484;11.314;2022-08-03T08:17:11;2.50;;;1.80;;
60257;SDS011;46115;44.484;11.314;2022-08-03T08:21:14;3.10;;;1.98;;
60257;SDS011;46115;44.484;11.314;2022-08-03T08:25:17;2.60;;;2.13;;
60257;SDS011;46115;44.484;11.314;2022-08-03T08:29:19;3.53;;;2.15;;
60257;SDS011;46115;44.484;11.314;2022-08-03T08:33:24;2.50;;;2.30;;
60257;SDS011;46115;44.484;11.314;2022-08-03T08:37:27;2.97;;;2.20;;
60257;SDS011;46115;44.484;11.314;2022-08-03T08:41:29;2.72;;;2.13;;
60257;SDS011;46115;44.484;11.314;2022-08-03T08:45:34;3.38;;;2.28;;
60257;SDS011;46115;44.484;11.314;2022-08-03T08:49:39;2.38;;;2.00;;
60257;SDS011;46115;44.484;11.314;2022-08-03T08:53:43;2.35;;;2.10;;
60257;SDS011;46115;44.484;11.314;2022-08-03T08:57:51;4.90;;;2.80;;
60257;SDS011;46115;44.484;11.314;2022-08-03T09:01:59;5.47;;;2.20;;
60257;SDS011;46115;44.484;11.314;2022-08-03T09:06:03;4.55;;;2.20;;
60257;SDS011;46115;44.484;11.314;2022-08-03T09:10:06;4.88;;;1.90;;
60257;SDS011;46115;44.484;11.314;2022-08-03T09:14:10;3.78;;;2.20;;
60257;SDS011;46115;44.484;11.314;2022-08-03T09:18:20;6.70;;;2.10;;
60257;SDS011;46115;44.484;11.314;2022-08-03T09:22:31;3.03;;;2.30;;
60257;SDS011;46115;44.484;11.314;2022-08-03T09:26:35;4.38;;;2.20;;
60257;SDS011;46115;44.484;11.314;2022-08-03T09:30:39;7.50;;;1.80;;
60257;SDS011;46115;44.484;11.314;2022-08-03T09:34:42;5.72;;;2.00;;
60257;SDS011;46115;44.484;11.314;2022-08-03T09:38:48;3.22;;;1.90;;
60257;SDS011;46115;44.484;11.314;2022-08-03T09:43:04;3.45;;;1.88;;
60257;SDS011;46115;44.484;11.314;2022-08-03T09:47:08;5.20;;;2.05;;
60257;SDS011;46115;44.484;11.314;2022-08-03T09:51:11;3.72;;;2.08;;
60257;SDS011;46115;44.484;11.314;2022-08-03T09:55:16;3.67;;;1.90;;
60257;SDS011;46115;44.484;11.314;2022-08-03T09:59:24;6.05;;;2.10;;
60257;SDS011;46115;44.484;11.314;2022-08-03T10:03:28;3.83;;;2.08;;
60257;SDS011;46115;44.484;11.314;2022-08-03T10:07:40;6.05;;;1.88;;
60257;SDS011;46115;44.484;11.314;2022-08-03T10:11:45;4.30;;;1.90;;
60257;SDS011;46115;44.484;11.314;2022-08-03T10:15:49;4.53;;;1.80;;
60257;SDS011;46115;44.484;11.314;2022-08-03T10:19:52;3.72;;;1.80;;
60257;SDS011;46115;44.484;11.314;2022-08-03T10:23:54;3.45;;;1.60;;
60257;SDS011;46115;44.484;11.314;2022-08-03T10:27:59;2.67;;;1.60;;
60257;SDS011;46115;44.484;11.314;2022-08-03T10:32:07;6.07;;;1.52;;
60257;SDS011;46115;44.484;11.314;2022-08-03T10:36:15;1.83;;;1.40;;
60257;SDS011;46115;44.484;11.314;2022-08-03T10:40:18;3.17;;;1.70;;
60257;SDS011;46115;44.484;11.314;2022-08-03T10:44:25;4.32;;;1.60;;
60257;SDS011;46115;44.484;11.314;2022-08-03T10:48:34;3.50;;;1.67;;
60257;SDS011;46115;44.484;11.314;2022-08-03T10:52:52;3.05;;;1.30;;
60257;SDS011;46115;44.484;11.314;2022-08-03T10:56:55;4.90;;;1.50;;
60257;SDS011;46115;44.484;11.314;2022-08-03T11:01:17;1.98;;;1.30;;
60257;SDS011;46115;44.484;11.314;2022-08-03T11:05:24;4.35;;;1.35;;
60257;SDS011;46115;44.484;11.314;2022-08-03T11:09:28;3.78;;;1.40;;
60257;SDS011;46115;44.484;11.314;2022-08-03T11:13:55;4.60;;;1.35;;
60257;SDS011;46115;44.484;11.314;2022-08-03T11:18:06;4.85;;;1.30;;
60257;SDS011;46115;44.484;11.314;2022-08-03T11:22:11;3.60;;;1.30;;
60257;SDS011;46115;44.484;11.314;2022-08-03T11:26:15;2.40;;;1.35;;
60257;SDS011;46115;44.484;11.314;2022-08-03T11:30:22;1.55;;;1.20;;
60257;SDS011;46115;44.484;11.314;2022-08-03T11:34:27;4.05;;;1.35;;
60257;SDS011;46115;44.484;11.314;2022-08-03T11:38:29;2.75;;;1.10;;
60257;SDS011;46115;44.484;11.314;2022-08-03T11:42:41;3.60;;;1.30;;
60257;SDS011;46115;44.484;11.314;2022-08-03T11:46:47;2.60;;;1.20;;
60257;SDS011;46115;44.484;11.314;2022-08-03T11:50:51;2.47;;;1.20;;
60257;SDS011;46115;44.484;11.314;2022-08-03T11:54:53;1.88;;;1.10;;
60257;SDS011;46115;44.484;11.314;2022-08-03T11:58:56;2.65;;;1.30;;
60257;SDS011;46115;44.484;11.314;2022-08-03T12:03:01;3.67;;;1.20;;
60257;SDS011;46115;44.484;11.314;2022-08-03T12:07:06;2.13;;;1.15;;
60257;SDS011;46115;44.484;11.314;2022-08-03T12:11:09;3.72;;;1.30;;
60257;SDS011;46115;44.484;11.314;2022-08-03T12:15:13;2.78;;;1.17;;
60257;SDS011;46115;44.484;11.314;2022-08-03T12:19:16;3.92;;;1.13;;
60257;SDS011;46115;44.484;11.314;2022-08-03T12:23:19;2.88;;;1.27;;
60257;SDS011;46115;44.484;11.314;2022-08-03T12:27:22;1.75;;;1.02;;
60257;SDS011;46115;44.484;11.314;2022-08-03T12:31:26;2.85;;;1.30;;
60257;SDS011;46115;44.484;11.314;2022-08-03T12:35:28;3.72;;;1.33;;
60257;SDS011;46115;44.484;11.314;2022-08-03T12:39:32;2.40;;;1.30;;
60257;SDS011;46115;44.484;11.314;2022-08-03T12:43:34;5.13;;;1.30;;
60257;SDS011;46115;44.484;11.314;2022-08-03T12:47:48;1.80;;;1.15;;
60257;SDS011;46115;44.484;11.314;2022-08-03T12:51:54;5.50;;;1.83;;
60257;SDS011;46115;44.484;11.314;2022-08-03T12:56:02;8.50;;;1.40;;
60257;SDS011;46115;44.484;11.314;2022-08-03T13:00:09;4.85;;;1.42;;
60257;SDS011;46115;44.484;11.314;2022-08-03T13:04:13;3.88;;;1.40;;
60257;SDS011;46115;44.484;11.314;2022-08-03T13:08:26;5.63;;;1.30;;
60257;SDS011;46115;44.484;11.314;2022-08-03T13:12:30;3.75;;;1.40;;
60257;SDS011;46115;44.484;11.314;2022-08-03T13:16:33;2.25;;;1.08;;
60257;SDS011;46115;44.484;11.314;2022-08-03T13:20:35;2.58;;;1.42;;
60257;SDS011;46115;44.484;11.314;2022-08-03T13:24:38;4.28;;;1.20;;
60257;SDS011;46115;44.484;11.314;2022-08-03T13:28:42;3.15;;;1.33;;
60257;SDS011;46115;44.484;11.314;2022-08-03T13:32:44;5.68;;;1.50;;
60257;SDS011;46115;44.484;11.314;2022-08-03T13:36:47;5.05;;;1.40;;
60257;SDS011;46115;44.484;11.314;2022-08-03T13:40:50;3.53;;;1.30;;
60257;SDS011;46115;44.484;11.314;2022-08-03T13:44:54;2.72;;;1.20;;
60257;SDS011;46115;44.484;11.314;2022-08-03T13:48:56;3.53;;;1.20;;
60257;SDS011;46115;44.484;11.314;2022-08-03T13:52:59;4.30;;;1.30;;
60257;SDS011;46115;44.484;11.314;2022-08-03T13:57:01;4.18;;;1.38;;
60257;SDS011;46115;44.484;11.314;2022-08-03T14:01:06;1.75;;;1.33;;
60257;SDS011;46115;44.484;11.314;2022-08-03T14:05:08;3.17;;;1.30;;
60257;SDS011;46115;44.484;11.314;2022-08-03T14:09:11;3.40;;;1.30;;
60257;SDS011;46115;44.484;11.314;2022-08-03T14:13:14;3.67;;;1.40;;
60257;SDS011;46115;44.484;11.314;2022-08-03T14:17:18;2.92;;;1.20;;
60257;SDS011;46115;44.484;11.314;2022-08-03T14:21:20;5.40;;;1.50;;
60257;SDS011;46115;44.484;11.314;2022-08-03T14:25:23;2.92;;;1.20;;
60257;SDS011;46115;44.484;11.314;2022-08-03T14:29:25;2.33;;;1.20;;
60257;SDS011;46115;44.484;11.314;2022-08-03T14:33:29;1.98;;;1.27;;
60257;SDS011;46115;44.484;11.314;2022-08-03T14:37:32;3.00;;;1.15;;
60257;SDS011;46115;44.484;11.314;2022-08-03T14:41:34;2.35;;;1.20;;
60257;SDS011;46115;44.484;11.314;2022-08-03T14:45:37;3.35;;;1.20;;
60257;SDS011;46115;44.484;11.314;2022-08-03T14:49:41;2.28;;;1.20;;
60257;SDS011;46115;44.484;11.314;2022-08-03T14:53:44;2.28;;;1.10;;
60257;SDS011;46115;44.484;11.314;2022-08-03T14:57:51;1.40;;;1.05;;
60257;SDS011;46115;44.484;11.314;2022-08-03T15:01:56;2.92;;;1.20;;
60257;SDS011;46115;44.484;11.314;2022-08-03T15:06:00;4.07;;;1.23;;
60257;SDS011;46115;44.484;11.314;2022-08-03T15:10:04;4.65;;;1.17;;
60257;SDS011;46115;44.484;11.314;2022-08-03T15:14:07;2.95;;;1.15;;
60257;SDS011;46115;44.484;11.314;2022-08-03T15:18:16;2.33;;;1.15;;
60257;SDS011;46115;44.484;11.314;2022-08-03T15:22:24;2.30;;;1.05;;
60257;SDS011;46115;44.484;11.314;2022-08-03T15:26:30;5.70;;;1.23;;
60257;SDS011;46115;44.484;11.314;2022-08-03T15:30:32;3.80;;;1.20;;
60257;SDS011;46115;44.484;11.314;2022-08-03T15:34:36;2.65;;;1.10;;
60257;SDS011;46115;44.484;11.314;2022-08-03T15:38:41;4.20;;;1.10;;
60257;SDS011;46115;44.484;11.314;2022-08-03T15:42:43;3.10;;;1.00;;
60257;SDS011;46115;44.484;11.314;2022-08-03T15:46:46;2.55;;;1.08;;
60257;SDS011;46115;44.484;11.314;2022-08-03T15:50:48;4.35;;;1.10;;
60257;SDS011;46115;44.484;11.314;2022-08-03T15:54:52;5.95;;;1.20;;
60257;SDS011;46115;44.484;11.314;2022-08-03T15:58:55;1.65;;;1.10;;
60257;SDS011;46115;44.484;11.314;2022-08-03T16:02:58;3.13;;;1.23;;
60257;SDS011;46115;44.484;11.314;2022-08-03T16:07:03;3.65;;;1.08;;
60257;SDS011;46115;44.484;11.314;2022-08-03T16:11:09;5.18;;;1.20;;
60257;SDS011;46115;44.484;11.314;2022-08-03T16:15:15;7.22;;;1.25;;
60257;SDS011;46115;44.484;11.314;2022-08-03T16:19:17;2.42;;;1.10;;
60257;SDS011;46115;44.484;11.314;2022-08-03T16:23:21;4.00;;;1.20;;
60257;SDS011;46115;44.484;11.314;2022-08-03T16:27:25;4.70;;;1.10;;
60257;SDS011;46115;44.484;11.314;2022-08-03T16:31:28;4.40;;;1.10;;
60257;SDS011;46115;44.484;11.314;2022-08-03T16:35:31;3.65;;;1.38;;
60257;SDS011;46115;44.484;11.314;2022-08-03T16:39:34;2.42;;;1.10;;
60257;SDS011;46115;44.484;11.314;2022-08-03T16:43:38;5.05;;;1.38;;
60257;SDS011;46115;44.484;11.314;2022-08-03T16:47:41;9.65;;;1.33;;
60257;SDS011;46115;44.484;11.314;2022-08-03T16:51:43;2.15;;;1.00;;
60257;SDS011;46115;44.484;11.314;2022-08-03T16:55:48;6.03;;;1.20;;
60257;SDS011;46115;44.484;11.314;2022-08-03T16:59:54;3.20;;;1.20;;
60257;SDS011;46115;44.484;11.314;2022-08-03T17:03:58;4.82;;;1.20;;
60257;SDS011;46115;44.484;11.314;2022-08-03T17:08:01;4.05;;;1.30;;
60257;SDS011;46115;44.484;11.314;2022-08-03T17:12:04;3.08;;;1.15;;
60257;SDS011;46115;44.484;11.314;2022-08-03T17:16:09;3.78;;;1.10;;
60257;SDS011;46115;44.484;11.314;2022-08-03T17:20:13;8.20;;;1.25;;
60257;SDS011;46115;44.484;11.314;2022-08-03T17:24:18;9.23;;;1.33;;
60257;SDS011;46115;44.484;11.314;2022-08-03T17:28:31;3.00;;;1.10;;
60257;SDS011;46115;44.484;11.314;2022-08-03T17:32:42;2.72;;;1.10;;
60257;SDS011;46115;44.484;11.314;2022-08-03T17:36:46;7.55;;;1.20;;
60257;SDS011;46115;44.484;11.314;2022-08-03T17:40:49;3.72;;;1.13;;
60257;SDS011;46115;44.484;11.314;2022-08-03T17:44:53;7.60;;;1.15;;
60257;SDS011;46115;44.484;11.314;2022-08-03T17:48:58;3.42;;;1.10;;
60257;SDS011;46115;44.484;11.314;2022-08-03T17:53:03;6.60;;;1.27;;
60257;SDS011;46115;44.484;11.314;2022-08-03T17:57:10;3.95;;;1.02;;
60257;SDS011;46115;44.484;11.314;2022-08-03T18:01:23;4.35;;;1.10;;
60257;SDS011;46115;44.484;11.314;2022-08-03T18:05:47;3.97;;;1.10;;
60257;SDS011;46115;44.484;11.314;2022-08-03T18:09:51;4.22;;;1.20;;
60257;SDS011;46115;44.484;11.314;2022-08-03T18:13:58;3.13;;;1.10;;
60257;SDS011;46115;44.484;11.314;2022-08-03T18:18:03;2.33;;;1.10;;
60257;SDS011;46115;44.484;11.314;2022-08-03T18:22:08;2.30;;;0.93;;
60257;SDS011;46115;44.484;11.314;2022-08-03T18:26:13;3.10;;;1.00;;
60257;SDS011;46115;44.484;11.314;2022-08-03T18:30:17;3.42;;;0.80;;
60257;SDS011;46115;44.484;11.314;2022-08-03T18:34:19;4.10;;;1.00;;
60257;SDS011;46115;44.484;11.314;2022-08-03T18:38:26;2.55;;;0.90;;
60257;SDS011;46115;44.484;11.314;2022-08-03T18:42:31;2.33;;;1.00;;
60257;SDS011;46115;44.484;11.314;2022-08-03T18:46:40;2.70;;;0.90;;
60257;SDS011;46115;44.484;11.314;2022-08-03T18:50:48;2.50;;;0.98;;
60257;SDS011;46115;44.484;11.314;2022-08-03T18:55:03;2.90;;;1.00;;
60257;SDS011;46115;44.484;11.314;2022-08-03T18:59:09;4.97;;;1.17;;
60257;SDS011;46115;44.484;11.314;2022-08-03T19:03:21;4.05;;;1.00;;
60257;SDS011;46115;44.484;11.314;2022-08-03T19:07:25;7.80;;;1.20;;
60257;SDS011;46115;44.484;11.314;2022-08-03T19:11:30;3.75;;;1.10;;
60257;SDS011;46115;44.484;11.314;2022-08-03T19:15:37;5.13;;;1.15;;
60257;SDS011;46115;44.484;11.314;2022-08-03T19:19:43;3.17;;;1.30;;
60257;SDS011;46115;44.484;11.314;2022-08-03T19:23:47;3.10;;;1.20;;
60257;SDS011;46115;44.484;11.314;2022-08-03T22:06:08;3.20;;;1.55;;
60257;SDS011;46115;44.484;11.314;2022-08-03T22:10:12;4.93;;;1.70;;
60257;SDS011;46115;44.484;11.314;2022-08-03T22:14:15;4.07;;;1.73;;
60257;SDS011;46115;44.484;11.314;2022-08-03T22:18:18;3.70;;;1.40;;
60257;SDS011;46115;44.484;11.314;2022-08-03T22:22:23;2.95;;;1.80;;
60257;SDS011;46115;44.484;11.314;2022-08-03T22:26:29;3.28;;;1.60;;
60257;SDS011;46115;44.484;11.314;2022-08-03T22:30:32;5.35;;;1.60;;
60257;SDS011;46115;44.484;11.314;2022-08-03T22:34:35;4.65;;;1.60;;
60257;SDS011;46115;44.484;11.314;2022-08-03T22:38:40;7.88;;;1.60;;
60257;SDS011;46115;44.484;11.314;2022-08-03T22:42:44;6.22;;;1.50;;
60257;SDS011;46115;44.484;11.314;2022-08-03T22:46:49;5.85;;;1.63;;
60257;SDS011;46115;44.484;11.314;2022-08-03T22:50:51;3.30;;;1.63;;
60257;SDS011;46115;44.484;11.314;2022-08-03T22:54:57;2.92;;;1.60;;
60257;SDS011;46115;44.484;11.314;2022-08-03T22:59:02;2.90;;;1.70;;
60257;SDS011;46115;44.484;11.314;2022-08-03T23:03:05;2.75;;;1.60;;
60257;SDS011;46115;44.484;11.314;2022-08-03T23:07:08;3.25;;;1.60;;
60257;SDS011;46115;44.484;11.314;2022-08-03T23:11:16;3.58;;;1.90;;
60257;SDS011;46115;44.484;11.314;2022-08-03T23:15:19;3.05;;;1.70;;
60257;SDS011;46115;44.484;11.314;2022-08-03T23:19:22;6.45;;;2.35;;
60257;SDS011;46115;44.484;11.314;2022-08-03T23:23:27;2.67;;;2.00;;
60257;SDS011;46115;44.484;11.314;2022-08-03T23:27:32;4.25;;;2.03;;
60257;SDS011;46115;44.484;11.314;2022-08-03T23:31:34;3.85;;;2.22;;
60257;SDS011;46115;44.484;11.314;2022-08-03T23:35:40;4.85;;;1.88;;
60257;SDS011;46115;44.484;11.314;2022-08-03T23:39:58;5.75;;;1.92;;
60257;SDS011;46115;44.484;11.314;2022-08-03T23:44:05;2.55;;;1.77;;
60257;SDS011;46115;44.484;11.314;2022-08-03T23:48:08;4.35;;;1.60;;
60257;SDS011;46115;44.484;11.314;2022-08-03T23:52:14;3.75;;;2.05;;
60257;SDS011;46115;44.484;11.314;2022-08-03T23:56:23;2.42;;;1.60;;
